sensor_id;sensor_type;location;lat;lon;timestamp;pressure;altitude;pressure_sealevel;temperature;humidity
41306;BME280;27051;50.376;19.152;2023-12-28T00:01:57;98420.48;;;4.02;56.67
41306;BME280;27051;50.376;19.152;2023-12-28T00:04:23;98416.50;;;3.97;56.77
41306;BME280;27051;50.376;19.152;2023-12-28T00:06:50;98415.88;;;4.00;56.83
41306;BME280;27051;50.376;19.152;2023-12-28T00:09:17;98415.95;;;4.03;56.77
41306;BME280;27051;50.376;19.152;2023-12-28T00:11:44;98415.61;;;4.03;56.87
41306;BME280;27051;50.376;19.152;2023-12-28T00:14:11;98411.84;;;4.06;56.76
41306;BME280;27051;50.376;19.152;2023-12-28T00:16:38;98411.30;;;4.11;56.90
41306;BME280;27051;50.376;19.152;2023-12-28T00:19:05;98407.20;;;4.15;56.80
41306;BME280;27051;50.376;19.152;2023-12-28T00:21:32;98405.16;;;4.17;56.54
41306;BME280;27051;50.376;19.152;2023-12-28T00:23:58;98398.71;;;4.13;56.58
41306;BME280;27051;50.376;19.152;2023-12-28T00:26:26;98398.97;;;4.06;56.56
41306;BME280;27051;50.376;19.152;2023-12-28T00:28:53;98389.16;;;4.03;56.71
41306;BME280;27051;50.376;19.152;2023-12-28T00:31:19;98388.08;;;4.02;56.79
41306;BME280;27051;50.376;19.152;2023-12-28T00:33:46;98385.63;;;3.95;56.62
41306;BME280;27051;50.376;19.152;2023-12-28T00:36:13;98384.06;;;3.93;56.85
41306;BME280;27051;50.376;19.152;2023-12-28T00:38:40;98378.91;;;3.93;56.83
41306;BME280;27051;50.376;19.152;2023-12-28T00:41:07;98372.83;;;3.95;56.87
41306;BME280;27051;50.376;19.152;2023-12-28T00:43:34;98367.88;;;3.94;56.83
41306;BME280;27051;50.376;19.152;2023-12-28T00:46:01;98366.95;;;3.85;56.87
41306;BME280;27051;50.376;19.152;2023-12-28T00:48:28;98366.39;;;3.83;56.84
41306;BME280;27051;50.376;19.152;2023-12-28T00:50:55;98366.43;;;3.80;57.11
41306;BME280;27051;50.376;19.152;2023-12-28T00:53:22;98369.35;;;3.85;57.04
41306;BME280;27051;50.376;19.152;2023-12-28T00:55:49;98365.19;;;3.89;57.03
41306;BME280;27051;50.376;19.152;2023-12-28T00:58:16;98366.31;;;3.85;57.09
41306;BME280;27051;50.376;19.152;2023-12-28T01:00:43;98368.02;;;3.85;57.04
41306;BME280;27051;50.376;19.152;2023-12-28T01:03:10;98362.10;;;3.82;56.98
41306;BME280;27051;50.376;19.152;2023-12-28T01:05:37;98359.19;;;3.77;57.03
41306;BME280;27051;50.376;19.152;2023-12-28T01:08:04;98354.81;;;3.78;57.05
41306;BME280;27051;50.376;19.152;2023-12-28T01:10:31;98354.02;;;3.79;57.11
41306;BME280;27051;50.376;19.152;2023-12-28T01:12:58;98357.50;;;3.77;57.15
41306;BME280;27051;50.376;19.152;2023-12-28T01:15:25;98352.55;;;3.77;57.13
41306;BME280;27051;50.376;19.152;2023-12-28T01:17:52;98351.27;;;3.72;57.13
41306;BME280;27051;50.376;19.152;2023-12-28T01:20:19;98346.10;;;3.69;57.23
41306;BME280;27051;50.376;19.152;2023-12-28T01:22:46;98345.40;;;3.63;57.17
41306;BME280;27051;50.376;19.152;2023-12-28T01:25:14;98341.34;;;3.61;57.33
41306;BME280;27051;50.376;19.152;2023-12-28T01:27:41;98333.69;;;3.65;57.20
41306;BME280;27051;50.376;19.152;2023-12-28T01:30:08;98324.10;;;3.68;57.50
41306;BME280;27051;50.376;19.152;2023-12-28T01:32:35;98323.73;;;3.74;57.44
41306;BME280;27051;50.376;19.152;2023-12-28T01:35:02;98322.18;;;3.73;57.45
41306;BME280;27051;50.376;19.152;2023-12-28T01:37:29;98324.54;;;3.76;57.49
41306;BME280;27051;50.376;19.152;2023-12-28T01:39:56;98325.73;;;3.78;57.52
41306;BME280;27051;50.376;19.152;2023-12-28T01:42:23;98326.59;;;3.81;57.62
41306;BME280;27051;50.376;19.152;2023-12-28T01:44:50;98322.34;;;3.85;57.52
41306;BME280;27051;50.376;19.152;2023-12-28T01:47:18;98322.15;;;3.80;57.37
41306;BME280;27051;50.376;19.152;2023-12-28T01:49:46;98319.74;;;3.77;57.59
41306;BME280;27051;50.376;19.152;2023-12-28T01:52:13;98321.27;;;3.75;57.59
41306;BME280;27051;50.376;19.152;2023-12-28T01:54:41;98314.37;;;3.77;57.69
41306;BME280;27051;50.376;19.152;2023-12-28T01:57:08;98316.13;;;3.84;57.59
41306;BME280;27051;50.376;19.152;2023-12-28T01:59:35;98307.60;;;3.87;57.69
41306;BME280;27051;50.376;19.152;2023-12-28T02:02:02;98305.80;;;3.85;57.50
41306;BME280;27051;50.376;19.152;2023-12-28T02:04:29;98296.11;;;3.86;57.56
41306;BME280;27051;50.376;19.152;2023-12-28T02:06:59;98292.16;;;3.83;57.53
41306;BME280;27051;50.376;19.152;2023-12-28T02:09:26;98290.02;;;3.84;57.71
41306;BME280;27051;50.376;19.152;2023-12-28T02:11:54;98285.70;;;3.84;57.72
41306;BME280;27051;50.376;19.152;2023-12-28T02:14:21;98284.70;;;3.84;57.72
41306;BME280;27051;50.376;19.152;2023-12-28T02:19:54;98285.00;;;3.75;57.70
41306;BME280;27051;50.376;19.152;2023-12-28T02:22:25;98287.80;;;3.76;57.95
41306;BME280;27051;50.376;19.152;2023-12-28T02:25:11;98286.22;;;3.78;57.91
41306;BME280;27051;50.376;19.152;2023-12-28T02:27:41;98288.20;;;3.74;57.85
41306;BME280;27051;50.376;19.152;2023-12-28T02:30:10;98286.42;;;3.68;57.86
41306;BME280;27051;50.376;19.152;2023-12-28T02:35:41;98286.04;;;3.62;58.00
41306;BME280;27051;50.376;19.152;2023-12-28T02:38:10;98287.61;;;3.57;58.06
41306;BME280;27051;50.376;19.152;2023-12-28T02:40:39;98286.89;;;3.56;58.16
41306;BME280;27051;50.376;19.152;2023-12-28T02:43:08;98283.27;;;3.50;58.07
41306;BME280;27051;50.376;19.152;2023-12-28T02:45:36;98284.33;;;3.47;58.18
41306;BME280;27051;50.376;19.152;2023-12-28T02:48:04;98283.04;;;3.48;58.22
41306;BME280;27051;50.376;19.152;2023-12-28T02:50:32;98282.14;;;3.51;58.41
41306;BME280;27051;50.376;19.152;2023-12-28T02:52:59;98281.19;;;3.55;58.38
41306;BME280;27051;50.376;19.152;2023-12-28T02:55:26;98276.83;;;3.59;58.45
41306;BME280;27051;50.376;19.152;2023-12-28T02:57:55;98272.29;;;3.64;58.34
41306;BME280;27051;50.376;19.152;2023-12-28T03:00:23;98270.06;;;3.64;58.44
41306;BME280;27051;50.376;19.152;2023-12-28T03:02:50;98263.73;;;3.64;58.38
41306;BME280;27051;50.376;19.152;2023-12-28T03:05:17;98258.63;;;3.68;58.47
41306;BME280;27051;50.376;19.152;2023-12-28T03:07:44;98255.35;;;3.70;58.38
41306;BME280;27051;50.376;19.152;2023-12-28T03:10:11;98252.57;;;3.71;58.42
41306;BME280;27051;50.376;19.152;2023-12-28T03:12:38;98246.83;;;3.72;58.37
41306;BME280;27051;50.376;19.152;2023-12-28T03:15:05;98243.29;;;3.69;58.31
41306;BME280;27051;50.376;19.152;2023-12-28T03:17:32;98240.88;;;3.67;58.31
41306;BME280;27051;50.376;19.152;2023-12-28T03:19:59;98241.54;;;3.69;58.50
41306;BME280;27051;50.376;19.152;2023-12-28T03:22:27;98238.34;;;3.74;58.63
41306;BME280;27051;50.376;19.152;2023-12-28T03:24:54;98238.83;;;3.77;58.63
41306;BME280;27051;50.376;19.152;2023-12-28T03:27:21;98234.73;;;3.79;58.66
41306;BME280;27051;50.376;19.152;2023-12-28T03:29:49;98229.73;;;3.79;58.58
41306;BME280;27051;50.376;19.152;2023-12-28T03:32:15;98224.70;;;3.82;58.69
41306;BME280;27051;50.376;19.152;2023-12-28T03:34:42;98222.68;;;3.85;58.75
41306;BME280;27051;50.376;19.152;2023-12-28T03:37:09;98215.14;;;3.82;58.77
41306;BME280;27051;50.376;19.152;2023-12-28T03:39:36;98207.84;;;3.78;58.73
41306;BME280;27051;50.376;19.152;2023-12-28T03:42:03;98202.97;;;3.74;58.80
41306;BME280;27051;50.376;19.152;2023-12-28T03:44:31;98200.84;;;3.78;58.83
41306;BME280;27051;50.376;19.152;2023-12-28T03:46:57;98198.42;;;3.82;58.86
41306;BME280;27051;50.376;19.152;2023-12-28T03:49:24;98201.36;;;3.88;58.79
41306;BME280;27051;50.376;19.152;2023-12-28T03:51:51;98204.09;;;3.90;58.66
41306;BME280;27051;50.376;19.152;2023-12-28T03:54:19;98214.79;;;3.86;58.51
41306;BME280;27051;50.376;19.152;2023-12-28T03:56:46;98219.19;;;3.84;58.74
41306;BME280;27051;50.376;19.152;2023-12-28T03:59:13;98232.95;;;3.87;58.78
41306;BME280;27051;50.376;19.152;2023-12-28T04:01:42;98243.39;;;3.83;58.99
41306;BME280;27051;50.376;19.152;2023-12-28T04:04:10;98254.39;;;3.91;58.96
41306;BME280;27051;50.376;19.152;2023-12-28T04:06:37;98254.06;;;3.94;58.66
41306;BME280;27051;50.376;19.152;2023-12-28T04:09:04;98254.10;;;3.82;58.43
41306;BME280;27051;50.376;19.152;2023-12-28T04:11:32;98251.05;;;3.77;58.65
41306;BME280;27051;50.376;19.152;2023-12-28T04:13:59;98244.33;;;3.72;58.61
41306;BME280;27051;50.376;19.152;2023-12-28T04:16:26;98245.48;;;3.69;58.81
41306;BME280;27051;50.376;19.152;2023-12-28T04:18:53;98247.59;;;3.69;58.83
41306;BME280;27051;50.376;19.152;2023-12-28T04:21:20;98249.07;;;3.63;58.93
41306;BME280;27051;50.376;19.152;2023-12-28T04:23:47;98245.58;;;3.66;59.10
41306;BME280;27051;50.376;19.152;2023-12-28T04:26:14;98251.69;;;3.69;59.12
41306;BME280;27051;50.376;19.152;2023-12-28T04:28:40;98254.93;;;3.66;58.87
41306;BME280;27051;50.376;19.152;2023-12-28T04:31:07;98259.74;;;3.64;59.01
41306;BME280;27051;50.376;19.152;2023-12-28T04:33:37;98254.40;;;3.66;59.35
41306;BME280;27051;50.376;19.152;2023-12-28T04:36:04;98254.65;;;3.70;59.34
41306;BME280;27051;50.376;19.152;2023-12-28T04:38:32;98251.64;;;3.73;59.54
41306;BME280;27051;50.376;19.152;2023-12-28T04:40:59;98245.66;;;3.74;59.49
41306;BME280;27051;50.376;19.152;2023-12-28T04:43:27;98243.13;;;3.76;59.45
41306;BME280;27051;50.376;19.152;2023-12-28T04:45:55;98237.36;;;3.79;59.60
41306;BME280;27051;50.376;19.152;2023-12-28T04:48:22;98241.84;;;3.80;59.53
41306;BME280;27051;50.376;19.152;2023-12-28T04:50:49;98235.77;;;3.79;59.64
41306;BME280;27051;50.376;19.152;2023-12-28T04:53:16;98224.30;;;3.74;59.79
41306;BME280;27051;50.376;19.152;2023-12-28T04:55:43;98218.19;;;3.66;60.07
41306;BME280;27051;50.376;19.152;2023-12-28T04:58:10;98223.21;;;3.65;60.50
41306;BME280;27051;50.376;19.152;2023-12-28T05:00:37;98229.30;;;3.66;60.73
41306;BME280;27051;50.376;19.152;2023-12-28T05:03:05;98229.04;;;3.70;60.84
41306;BME280;27051;50.376;19.152;2023-12-28T05:05:32;98225.60;;;3.79;61.13
41306;BME280;27051;50.376;19.152;2023-12-28T05:08:00;98216.47;;;3.88;61.26
41306;BME280;27051;50.376;19.152;2023-12-28T05:10:30;98212.17;;;3.90;60.94
41306;BME280;27051;50.376;19.152;2023-12-28T05:12:57;98216.77;;;3.85;60.73
41306;BME280;27051;50.376;19.152;2023-12-28T05:15:24;98216.69;;;3.81;60.91
41306;BME280;27051;50.376;19.152;2023-12-28T05:17:51;98222.86;;;3.80;61.08
41306;BME280;27051;50.376;19.152;2023-12-28T05:20:18;98213.30;;;3.80;61.18
41306;BME280;27051;50.376;19.152;2023-12-28T05:22:44;98211.23;;;3.73;61.17
41306;BME280;27051;50.376;19.152;2023-12-28T05:25:12;98212.83;;;3.67;61.20
41306;BME280;27051;50.376;19.152;2023-12-28T05:27:39;98210.61;;;3.62;61.62
41306;BME280;27051;50.376;19.152;2023-12-28T05:30:06;98211.13;;;3.60;61.73
41306;BME280;27051;50.376;19.152;2023-12-28T05:32:34;98201.19;;;3.59;61.72
41306;BME280;27051;50.376;19.152;2023-12-28T05:35:01;98191.83;;;3.63;62.09
41306;BME280;27051;50.376;19.152;2023-12-28T05:37:28;98186.56;;;3.70;62.25
41306;BME280;27051;50.376;19.152;2023-12-28T05:39:55;98181.75;;;3.75;62.42
41306;BME280;27051;50.376;19.152;2023-12-28T05:42:22;98184.96;;;3.79;62.22
41306;BME280;27051;50.376;19.152;2023-12-28T05:44:49;98179.73;;;3.84;62.22
41306;BME280;27051;50.376;19.152;2023-12-28T05:47:16;98192.89;;;3.89;62.40
41306;BME280;27051;50.376;19.152;2023-12-28T05:49:43;98206.09;;;3.98;62.40
41306;BME280;27051;50.376;19.152;2023-12-28T05:52:10;98187.30;;;4.04;62.33
41306;BME280;27051;50.376;19.152;2023-12-28T05:54:37;98179.53;;;3.98;62.11
41306;BME280;27051;50.376;19.152;2023-12-28T05:57:04;98166.30;;;3.92;62.12
41306;BME280;27051;50.376;19.152;2023-12-28T05:59:30;98160.48;;;3.87;62.19
41306;BME280;27051;50.376;19.152;2023-12-28T06:01:57;98161.49;;;3.87;62.35
41306;BME280;27051;50.376;19.152;2023-12-28T06:04:24;98171.77;;;3.86;62.50
41306;BME280;27051;50.376;19.152;2023-12-28T06:06:51;98173.14;;;3.90;62.49
41306;BME280;27051;50.376;19.152;2023-12-28T06:09:18;98171.42;;;3.94;62.45
41306;BME280;27051;50.376;19.152;2023-12-28T06:11:45;98172.17;;;3.99;62.54
41306;BME280;27051;50.376;19.152;2023-12-28T06:14:12;98168.77;;;4.00;62.87
41306;BME280;27051;50.376;19.152;2023-12-28T06:16:39;98175.11;;;4.02;62.96
41306;BME280;27051;50.376;19.152;2023-12-28T06:19:06;98175.71;;;4.03;63.04
41306;BME280;27051;50.376;19.152;2023-12-28T06:21:33;98185.59;;;4.02;62.86
41306;BME280;27051;50.376;19.152;2023-12-28T06:24:00;98195.06;;;4.04;62.77
41306;BME280;27051;50.376;19.152;2023-12-28T06:26:27;98200.47;;;4.08;62.90
41306;BME280;27051;50.376;19.152;2023-12-28T06:28:54;98199.36;;;4.13;62.76
41306;BME280;27051;50.376;19.152;2023-12-28T06:31:21;98199.96;;;4.13;62.49
41306;BME280;27051;50.376;19.152;2023-12-28T06:33:48;98209.98;;;4.11;62.67
41306;BME280;27051;50.376;19.152;2023-12-28T06:36:17;98211.30;;;4.13;62.41
41306;BME280;27051;50.376;19.152;2023-12-28T06:38:44;98207.95;;;4.13;62.48
41306;BME280;27051;50.376;19.152;2023-12-28T06:41:12;98205.42;;;4.14;62.51
41306;BME280;27051;50.376;19.152;2023-12-28T06:43:39;98196.57;;;4.15;62.55
41306;BME280;27051;50.376;19.152;2023-12-28T06:46:06;98193.52;;;4.13;62.32
41306;BME280;27051;50.376;19.152;2023-12-28T06:48:33;98200.53;;;4.11;62.28
41306;BME280;27051;50.376;19.152;2023-12-28T06:51:00;98211.79;;;4.09;62.25
41306;BME280;27051;50.376;19.152;2023-12-28T06:53:27;98221.51;;;4.07;62.16
41306;BME280;27051;50.376;19.152;2023-12-28T06:55:54;98227.89;;;4.00;62.14
41306;BME280;27051;50.376;19.152;2023-12-28T06:58:21;98228.98;;;3.99;62.38
41306;BME280;27051;50.376;19.152;2023-12-28T07:00:48;98223.52;;;4.02;62.37
41306;BME280;27051;50.376;19.152;2023-12-28T07:03:15;98216.84;;;4.02;62.57
41306;BME280;27051;50.376;19.152;2023-12-28T07:05:42;98216.55;;;4.07;62.78
41306;BME280;27051;50.376;19.152;2023-12-28T07:08:09;98221.36;;;4.12;62.62
41306;BME280;27051;50.376;19.152;2023-12-28T07:10:36;98231.81;;;4.17;62.60
41306;BME280;27051;50.376;19.152;2023-12-28T07:13:03;98236.14;;;4.25;62.59
41306;BME280;27051;50.376;19.152;2023-12-28T07:15:29;98233.04;;;4.35;62.55
41306;BME280;27051;50.376;19.152;2023-12-28T07:17:57;98238.15;;;4.49;62.50
41306;BME280;27051;50.376;19.152;2023-12-28T07:20:24;98234.45;;;4.56;62.51
41306;BME280;27051;50.376;19.152;2023-12-28T07:22:51;98235.91;;;4.74;62.63
41306;BME280;27051;50.376;19.152;2023-12-28T07:25:18;98234.33;;;4.94;62.84
41306;BME280;27051;50.376;19.152;2023-12-28T07:27:45;98233.87;;;5.16;62.78
41306;BME280;27051;50.376;19.152;2023-12-28T07:30:12;98236.23;;;5.35;63.05
41306;BME280;27051;50.376;19.152;2023-12-28T07:32:39;98231.29;;;5.51;63.22
41306;BME280;27051;50.376;19.152;2023-12-28T07:35:06;98235.95;;;5.66;63.36
41306;BME280;27051;50.376;19.152;2023-12-28T07:37:33;98232.55;;;5.79;63.47
41306;BME280;27051;50.376;19.152;2023-12-28T07:40:01;98236.91;;;5.91;63.38
41306;BME280;27051;50.376;19.152;2023-12-28T07:42:29;98236.23;;;6.00;63.24
41306;BME280;27051;50.376;19.152;2023-12-28T07:44:55;98246.53;;;6.11;63.22
41306;BME280;27051;50.376;19.152;2023-12-28T07:47:22;98248.56;;;6.19;63.09
41306;BME280;27051;50.376;19.152;2023-12-28T07:49:49;98250.27;;;6.28;63.22
41306;BME280;27051;50.376;19.152;2023-12-28T07:52:16;98251.58;;;6.39;63.10
41306;BME280;27051;50.376;19.152;2023-12-28T07:54:43;98255.16;;;6.47;63.02
41306;BME280;27051;50.376;19.152;2023-12-28T07:57:10;98259.45;;;6.52;62.93
41306;BME280;27051;50.376;19.152;2023-12-28T07:59:40;98257.00;;;6.62;63.02
41306;BME280;27051;50.376;19.152;2023-12-28T08:02:07;98257.13;;;6.70;62.84
41306;BME280;27051;50.376;19.152;2023-12-28T08:04:34;98260.09;;;6.75;62.93
41306;BME280;27051;50.376;19.152;2023-12-28T08:07:01;98253.65;;;6.83;62.80
41306;BME280;27051;50.376;19.152;2023-12-28T08:09:28;98253.80;;;6.91;62.80
41306;BME280;27051;50.376;19.152;2023-12-28T08:11:55;98249.45;;;6.95;62.64
41306;BME280;27051;50.376;19.152;2023-12-28T08:14:22;98247.42;;;6.99;62.59
41306;BME280;27051;50.376;19.152;2023-12-28T08:16:49;98250.74;;;7.02;62.48
41306;BME280;27051;50.376;19.152;2023-12-28T08:19:16;98253.32;;;7.08;62.46
41306;BME280;27051;50.376;19.152;2023-12-28T08:21:43;98252.81;;;7.14;62.39
41306;BME280;27051;50.376;19.152;2023-12-28T08:24:10;98243.98;;;7.18;62.35
41306;BME280;27051;50.376;19.152;2023-12-28T08:26:37;98248.47;;;7.24;62.31
41306;BME280;27051;50.376;19.152;2023-12-28T08:29:05;98244.44;;;7.30;62.22
41306;BME280;27051;50.376;19.152;2023-12-28T08:31:32;98254.23;;;7.33;62.12
41306;BME280;27051;50.376;19.152;2023-12-28T08:33:59;98250.92;;;7.34;62.18
41306;BME280;27051;50.376;19.152;2023-12-28T08:36:26;98252.49;;;7.39;62.20
41306;BME280;27051;50.376;19.152;2023-12-28T08:38:53;98256.72;;;7.47;62.16
41306;BME280;27051;50.376;19.152;2023-12-28T08:41:21;98266.18;;;7.53;62.17
41306;BME280;27051;50.376;19.152;2023-12-28T08:43:48;98280.33;;;7.58;62.08
41306;BME280;27051;50.376;19.152;2023-12-28T08:46:15;98294.27;;;7.59;61.89
41306;BME280;27051;50.376;19.152;2023-12-28T08:48:45;98288.57;;;7.60;62.03
41306;BME280;27051;50.376;19.152;2023-12-28T08:51:12;98287.94;;;7.65;61.94
41306;BME280;27051;50.376;19.152;2023-12-28T08:53:40;98293.48;;;7.67;61.90
41306;BME280;27051;50.376;19.152;2023-12-28T08:56:19;98290.30;;;7.68;61.85
41306;BME280;27051;50.376;19.152;2023-12-28T08:58:47;98278.84;;;7.70;61.75
41306;BME280;27051;50.376;19.152;2023-12-28T09:01:22;98272.98;;;7.72;61.70
41306;BME280;27051;50.376;19.152;2023-12-28T09:03:53;98278.34;;;7.74;61.79
41306;BME280;27051;50.376;19.152;2023-12-28T09:06:24;98275.94;;;7.77;61.80
41306;BME280;27051;50.376;19.152;2023-12-28T09:08:54;98275.37;;;7.83;61.75
41306;BME280;27051;50.376;19.152;2023-12-28T09:11:28;98271.46;;;7.88;61.69
41306;BME280;27051;50.376;19.152;2023-12-28T09:13:56;98266.84;;;7.94;61.75
41306;BME280;27051;50.376;19.152;2023-12-28T09:16:23;98259.02;;;8.05;61.81
41306;BME280;27051;50.376;19.152;2023-12-28T09:18:50;98254.55;;;8.13;61.67
41306;BME280;27051;50.376;19.152;2023-12-28T09:21:17;98259.05;;;8.22;61.59
41306;BME280;27051;50.376;19.152;2023-12-28T09:23:44;98251.73;;;8.30;61.41
41306;BME280;27051;50.376;19.152;2023-12-28T09:26:11;98250.34;;;8.37;61.37
41306;BME280;27051;50.376;19.152;2023-12-28T09:28:38;98247.49;;;8.45;61.33
41306;BME280;27051;50.376;19.152;2023-12-28T09:31:06;98247.16;;;8.51;61.14
41306;BME280;27051;50.376;19.152;2023-12-28T09:33:32;98243.34;;;8.59;61.08
41306;BME280;27051;50.376;19.152;2023-12-28T09:35:59;98245.77;;;8.68;61.04
41306;BME280;27051;50.376;19.152;2023-12-28T09:38:26;98242.27;;;8.74;60.66
41306;BME280;27051;50.376;19.152;2023-12-28T09:40:58;98230.73;;;8.82;60.85
41306;BME280;27051;50.376;19.152;2023-12-28T09:43:35;98227.09;;;8.94;60.31
41306;BME280;27051;50.376;19.152;2023-12-28T09:46:06;98221.56;;;9.01;60.22
41306;BME280;27051;50.376;19.152;2023-12-28T09:48:34;98219.36;;;9.10;60.22
41306;BME280;27051;50.376;19.152;2023-12-28T09:51:01;98219.77;;;9.19;59.72
41306;BME280;27051;50.376;19.152;2023-12-28T09:53:28;98215.64;;;9.27;59.87
41306;BME280;27051;50.376;19.152;2023-12-28T09:55:54;98221.57;;;9.36;59.88
41306;BME280;27051;50.376;19.152;2023-12-28T09:58:21;98223.61;;;9.46;59.78
41306;BME280;27051;50.376;19.152;2023-12-28T10:00:50;98223.02;;;9.55;59.69
41306;BME280;27051;50.376;19.152;2023-12-28T10:03:17;98219.52;;;9.60;59.41
41306;BME280;27051;50.376;19.152;2023-12-28T10:05:46;98213.32;;;9.65;58.88
41306;BME280;27051;50.376;19.152;2023-12-28T10:08:15;98206.70;;;9.75;58.95
41306;BME280;27051;50.376;19.152;2023-12-28T10:10:44;98201.34;;;9.85;58.29
41306;BME280;27051;50.376;19.152;2023-12-28T10:13:11;98199.34;;;9.93;57.48
41306;BME280;27051;50.376;19.152;2023-12-28T10:15:38;98202.61;;;10.04;57.34
41306;BME280;27051;50.376;19.152;2023-12-28T10:18:05;98207.81;;;10.10;56.82
41306;BME280;27051;50.376;19.152;2023-12-28T10:20:49;98208.33;;;10.19;56.45
41306;BME280;27051;50.376;19.152;2023-12-28T10:23:16;98201.89;;;10.30;56.00
41306;BME280;27051;50.376;19.152;2023-12-28T10:25:43;98200.91;;;10.40;55.63
41306;BME280;27051;50.376;19.152;2023-12-28T10:28:10;98182.71;;;10.49;56.00
41306;BME280;27051;50.376;19.152;2023-12-28T10:30:37;98173.27;;;10.62;55.17
41306;BME280;27051;50.376;19.152;2023-12-28T10:33:05;98176.49;;;10.75;55.21
41306;BME280;27051;50.376;19.152;2023-12-28T10:35:32;98180.29;;;10.86;54.97
41306;BME280;27051;50.376;19.152;2023-12-28T10:38:00;98185.09;;;10.97;54.13
41306;BME280;27051;50.376;19.152;2023-12-28T10:40:27;98181.66;;;11.09;53.10
41306;BME280;27051;50.376;19.152;2023-12-28T10:42:57;98177.52;;;11.23;53.58
41306;BME280;27051;50.376;19.152;2023-12-28T10:45:25;98186.52;;;11.42;53.24
41306;BME280;27051;50.376;19.152;2023-12-28T10:50:49;98180.80;;;11.72;51.05
41306;BME280;27051;50.376;19.152;2023-12-28T10:53:38;98177.90;;;11.96;52.62
41306;BME280;27051;50.376;19.152;2023-12-28T10:58:49;98149.77;;;12.51;51.63
41306;BME280;27051;50.376;19.152;2023-12-28T11:01:22;98150.88;;;12.58;52.65
41306;BME280;27051;50.376;19.152;2023-12-28T11:04:03;98157.55;;;12.65;51.92
41306;BME280;27051;50.376;19.152;2023-12-28T11:06:34;98154.55;;;12.61;51.94
41306;BME280;27051;50.376;19.152;2023-12-28T11:09:01;98158.88;;;12.55;50.46
41306;BME280;27051;50.376;19.152;2023-12-28T11:11:29;98147.37;;;12.50;51.22
41306;BME280;27051;50.376;19.152;2023-12-28T11:13:59;98147.84;;;12.61;51.24
41306;BME280;27051;50.376;19.152;2023-12-28T11:16:28;98154.55;;;12.58;49.78
41306;BME280;27051;50.376;19.152;2023-12-28T11:18:55;98159.26;;;12.52;49.73
41306;BME280;27051;50.376;19.152;2023-12-28T11:21:24;98163.65;;;12.45;50.56
41306;BME280;27051;50.376;19.152;2023-12-28T11:23:51;98161.98;;;12.36;49.61
41306;BME280;27051;50.376;19.152;2023-12-28T11:26:20;98160.92;;;12.27;50.72
41306;BME280;27051;50.376;19.152;2023-12-28T11:28:48;98161.27;;;12.26;51.47
41306;BME280;27051;50.376;19.152;2023-12-28T11:31:16;98156.25;;;12.35;50.91
41306;BME280;27051;50.376;19.152;2023-12-28T11:33:50;98148.92;;;12.48;50.26
41306;BME280;27051;50.376;19.152;2023-12-28T11:36:34;98145.04;;;12.57;50.40
41306;BME280;27051;50.376;19.152;2023-12-28T11:39:03;98143.14;;;12.74;49.98
41306;BME280;27051;50.376;19.152;2023-12-28T11:41:32;98139.71;;;12.91;50.15
41306;BME280;27051;50.376;19.152;2023-12-28T11:44:03;98145.91;;;12.96;49.07
41306;BME280;27051;50.376;19.152;2023-12-28T11:46:35;98144.60;;;13.03;49.92
41306;BME280;27051;50.376;19.152;2023-12-28T11:49:06;98148.73;;;13.16;49.16
41306;BME280;27051;50.376;19.152;2023-12-28T11:51:35;98149.95;;;13.27;48.31
41306;BME280;27051;50.376;19.152;2023-12-28T11:54:03;98149.60;;;13.32;48.13
41306;BME280;27051;50.376;19.152;2023-12-28T11:56:30;98143.95;;;13.24;47.96
41306;BME280;27051;50.376;19.152;2023-12-28T11:58:58;98140.13;;;13.11;48.32
41306;BME280;27051;50.376;19.152;2023-12-28T12:01:25;98136.86;;;12.95;48.23
41306;BME280;27051;50.376;19.152;2023-12-28T12:03:53;98133.41;;;12.74;48.87
41306;BME280;27051;50.376;19.152;2023-12-28T12:06:20;98145.23;;;12.55;47.88
41306;BME280;27051;50.376;19.152;2023-12-28T12:08:47;98151.70;;;12.38;48.56
41306;BME280;27051;50.376;19.152;2023-12-28T12:11:14;98148.34;;;12.26;48.83
41306;BME280;27051;50.376;19.152;2023-12-28T12:13:43;98140.63;;;12.13;49.27
41306;BME280;27051;50.376;19.152;2023-12-28T12:16:10;98139.91;;;12.06;49.42
41306;BME280;27051;50.376;19.152;2023-12-28T12:18:37;98132.28;;;11.99;49.22
41306;BME280;27051;50.376;19.152;2023-12-28T12:21:04;98132.75;;;11.96;49.12
41306;BME280;27051;50.376;19.152;2023-12-28T12:23:31;98129.60;;;11.84;48.93
41306;BME280;27051;50.376;19.152;2023-12-28T12:25:58;98123.09;;;11.77;49.26
41306;BME280;27051;50.376;19.152;2023-12-28T12:28:26;98116.82;;;11.70;49.44
41306;BME280;27051;50.376;19.152;2023-12-28T12:30:54;98129.45;;;11.64;49.57
41306;BME280;27051;50.376;19.152;2023-12-28T12:33:23;98140.17;;;11.65;49.25
41306;BME280;27051;50.376;19.152;2023-12-28T12:35:51;98142.02;;;11.77;49.68
41306;BME280;27051;50.376;19.152;2023-12-28T12:38:18;98147.02;;;11.86;49.27
41306;BME280;27051;50.376;19.152;2023-12-28T12:40:46;98139.65;;;11.91;49.22
41306;BME280;27051;50.376;19.152;2023-12-28T12:43:13;98129.63;;;11.94;49.46
41306;BME280;27051;50.376;19.152;2023-12-28T12:45:40;98125.89;;;11.92;49.53
41306;BME280;27051;50.376;19.152;2023-12-28T12:48:07;98135.09;;;11.91;49.61
41306;BME280;27051;50.376;19.152;2023-12-28T12:50:34;98141.23;;;11.93;49.52
41306;BME280;27051;50.376;19.152;2023-12-28T12:53:10;98147.26;;;11.93;49.53
41306;BME280;27051;50.376;19.152;2023-12-28T12:55:37;98147.77;;;11.93;49.68
41306;BME280;27051;50.376;19.152;2023-12-28T12:58:03;98142.61;;;11.90;49.71
41306;BME280;27051;50.376;19.152;2023-12-28T13:00:30;98125.98;;;11.93;49.88
41306;BME280;27051;50.376;19.152;2023-12-28T13:03:10;98133.16;;;12.03;49.65
41306;BME280;27051;50.376;19.152;2023-12-28T13:05:37;98130.90;;;12.08;49.76
41306;BME280;27051;50.376;19.152;2023-12-28T13:08:04;98120.27;;;12.11;49.99
41306;BME280;27051;50.376;19.152;2023-12-28T13:10:31;98111.28;;;12.08;49.93
41306;BME280;27051;50.376;19.152;2023-12-28T13:12:58;98113.07;;;12.03;49.65